createdAt,value
2022-11-03T00:01:54.024Z,13.85
2022-11-03T00:04:41.238Z,12.48
2022-11-03T00:07:28.427Z,12.82
2022-11-03T00:10:15.802Z,11.35
2022-11-03T00:13:03.001Z,12.43
2022-11-03T00:15:50.497Z,16.35
2022-11-03T00:23:49.751Z,16.13
2022-11-03T00:26:37.293Z,15.25
2022-11-03T00:29:26.524Z,15.40
2022-11-03T00:32:14.782Z,14.65
2022-11-03T00:35:01.858Z,14.60
2022-11-03T00:37:48.911Z,13.85
2022-11-03T00:40:36.075Z,13.55
2022-11-03T00:43:24.731Z,13.07
2022-11-03T00:46:11.993Z,13.63
2022-11-03T00:48:59.129Z,11.88
2022-11-03T00:51:46.248Z,12.25
2022-11-03T00:54:33.492Z,11.80
2022-11-03T00:57:20.669Z,12.60
2022-11-03T01:00:08.390Z,12.68
2022-11-03T01:02:58.194Z,13.07
2022-11-03T01:06:03.969Z,12.52
2022-11-03T01:08:51.121Z,12.32
2022-11-03T01:11:44.707Z,11.45
2022-11-03T01:14:35.397Z,11.43
2022-11-03T01:17:27.786Z,10.30
2022-11-03T01:20:15.110Z,12.57
2022-11-03T01:23:02.624Z,11.48
2022-11-03T01:25:50.253Z,10.82
2022-11-03T01:28:38.803Z,10.85
2022-11-03T01:31:27.523Z,11.57
2022-11-03T01:34:21.672Z,11.85
2022-11-03T01:37:11.341Z,12.23
2022-11-03T01:40:00.603Z,12.73
2022-11-03T01:42:47.707Z,13.18
2022-11-03T01:45:37.460Z,12.15
2022-11-03T01:48:25.006Z,12.45
2022-11-03T01:51:17.183Z,12.40
2022-11-03T01:54:09.947Z,12.35
2022-11-03T01:56:58.857Z,12.18
2022-11-03T01:59:48.072Z,13.88
2022-11-03T02:02:35.413Z,13.85
2022-11-03T02:05:25.673Z,13.65
2022-11-03T02:08:24.846Z,14.18
2022-11-03T02:11:32.005Z,14.35
2022-11-03T02:14:21.244Z,13.63
2022-11-03T02:17:12.396Z,13.13
2022-11-03T02:20:11.458Z,13.60
2022-11-03T02:23:12.527Z,14.80
2022-11-03T02:26:00.643Z,14.10
2022-11-03T02:28:48.888Z,15.18
2022-11-03T02:31:42.537Z,15.32
2022-11-03T02:35:09.964Z,16.98
2022-11-03T02:38:01.102Z,17.20
2022-11-03T02:40:53.319Z,16.60
2022-11-03T02:43:41.891Z,16.27
2022-11-03T02:46:32.087Z,18.15
2022-11-03T02:49:19.214Z,18.52
2022-11-03T02:52:09.405Z,17.25
2022-11-03T02:54:58.252Z,15.82
2022-11-03T02:58:10.967Z,17.15
2022-11-03T03:01:37.340Z,16.02
2022-11-03T03:04:30.617Z,16.10
2022-11-03T03:07:26.527Z,16.13
2022-11-03T03:10:19.870Z,16.70
2022-11-03T03:13:08.566Z,15.85
2022-11-03T03:16:14.756Z,15.13
2022-11-03T03:19:13.106Z,14.70
2022-11-03T03:22:06.247Z,15.48
2022-11-03T03:25:01.044Z,15.43
2022-11-03T03:27:55.845Z,14.50
2022-11-03T03:30:45.660Z,14.70
2022-11-03T03:33:36.956Z,15.32
2022-11-03T03:36:26.400Z,16.35
2022-11-03T03:39:15.488Z,19.30
2022-11-03T03:42:04.947Z,18.48
2022-11-03T03:44:55.476Z,17.27
2022-11-03T03:47:43.476Z,18.17
2022-11-03T03:50:36.631Z,16.35
2022-11-03T03:53:29.516Z,17.23
2022-11-03T03:56:18.024Z,16.30
2022-11-03T03:59:07.630Z,15.80
2022-11-03T04:01:55.854Z,15.50
2022-11-03T04:04:43.101Z,15.40
2022-11-03T04:07:48.648Z,17.55
2022-11-03T04:10:38.540Z,14.77
2022-11-03T04:13:44.246Z,15.73
2022-11-03T04:16:52.234Z,16.83
2022-11-03T04:19:59.874Z,15.98
2022-11-03T04:22:49.359Z,16.88
2022-11-03T04:25:36.455Z,15.80
2022-11-03T04:28:27.192Z,18.08
2022-11-03T04:31:16.547Z,16.73
2022-11-03T04:34:12.147Z,17.33
2022-11-03T04:36:59.422Z,17.33
2022-11-03T04:39:46.508Z,16.92
2022-11-03T04:42:34.865Z,17.58
2022-11-03T04:45:30.600Z,17.42
2022-11-03T04:48:25.179Z,17.48
2022-11-03T04:51:18.475Z,17.30
2022-11-03T04:54:23.115Z,17.42
2022-11-03T04:57:17.732Z,18.08
2022-11-03T05:00:07.389Z,20.02
2022-11-03T05:02:56.329Z,19.95
2022-11-03T05:05:44.038Z,22.17
2022-11-03T05:08:31.099Z,21.20
2022-11-03T05:11:44.851Z,20.73
2022-11-03T05:14:32.713Z,20.80
2022-11-03T05:17:26.307Z,21.67
2022-11-03T05:20:37.579Z,21.00
2022-11-03T05:23:28.218Z,20.20
2022-11-03T05:26:28.232Z,20.95
2022-11-03T05:29:19.789Z,20.83
2022-11-03T05:32:22.071Z,20.85
2022-11-03T05:35:21.340Z,21.15
2022-11-03T05:38:14.756Z,22.13
2022-11-03T05:41:02.120Z,21.90
2022-11-03T05:44:02.208Z,21.80
2022-11-03T05:46:49.335Z,21.00
2022-11-03T05:49:36.481Z,20.23
2022-11-03T05:52:26.586Z,20.77
2022-11-03T05:55:42.527Z,20.10
2022-11-03T05:58:35.690Z,20.60
2022-11-03T06:01:34.798Z,19.20
2022-11-03T06:04:33.264Z,18.35
2022-11-03T06:07:26.128Z,20.63
2022-11-03T06:10:31.852Z,21.33
2022-11-03T06:13:31.168Z,22.60
2022-11-03T06:16:23.439Z,22.92
2022-11-03T06:19:25.390Z,26.05
2022-11-03T06:22:37.038Z,25.75
2022-11-03T06:25:33.349Z,23.95
2022-11-03T06:28:40.855Z,23.27
2022-11-03T06:31:32.787Z,21.95
2022-11-03T06:34:50.431Z,16.63
2022-11-03T06:37:37.662Z,20.73
2022-11-03T06:40:35.973Z,20.35
2022-11-03T06:43:28.766Z,19.98
2022-11-03T06:46:22.683Z,21.45
2022-11-03T06:49:35.022Z,23.10
2022-11-03T06:52:37.826Z,24.55
2022-11-03T06:58:24.075Z,21.88
2022-11-03T07:01:22.830Z,23.08
2022-11-03T07:04:33.940Z,23.95
2022-11-03T07:07:25.624Z,24.33
2022-11-03T07:10:15.730Z,25.00
2022-11-03T07:13:30.864Z,24.63
2022-11-03T07:16:27.877Z,23.60
2022-11-03T07:19:24.657Z,27.15
2022-11-03T07:22:29.866Z,23.92
2022-11-03T07:25:20.322Z,24.15
2022-11-03T07:28:11.918Z,20.27
2022-11-03T07:31:01.515Z,21.00
2022-11-03T07:33:48.831Z,19.63
2022-11-03T07:36:35.905Z,18.33
2022-11-03T07:39:23.373Z,19.48
2022-11-03T07:42:19.977Z,18.15
2022-11-03T07:45:35.805Z,16.98
2022-11-03T07:48:47.663Z,17.20
2022-11-03T07:51:40.819Z,15.82
2022-11-03T07:54:37.128Z,18.15
2022-11-03T07:57:32.349Z,16.73
2022-11-03T08:00:22.796Z,15.95
2022-11-03T08:03:32.939Z,13.82
2022-11-03T08:06:20.285Z,12.80
2022-11-03T08:09:07.386Z,11.23
2022-11-03T08:11:56.822Z,9.95
2022-11-03T08:14:46.689Z,9.35
2022-11-03T08:17:34.433Z,9.23
2022-11-03T08:20:21.618Z,8.10
2022-11-03T08:23:25.118Z,8.30
2022-11-03T08:26:13.176Z,7.53
2022-11-03T08:29:03.122Z,7.28
2022-11-03T08:31:52.728Z,8.07
2022-11-03T08:34:40.188Z,7.22
2022-11-03T08:37:27.340Z,6.97
2022-11-03T08:40:14.458Z,6.35
2022-11-03T08:43:05.952Z,7.00
2022-11-03T08:45:59.522Z,6.05
2022-11-03T08:48:53.001Z,5.28
2022-11-03T08:51:44.680Z,6.00
2022-11-03T08:54:32.260Z,6.13
2022-11-03T08:57:19.720Z,5.15
2022-11-03T09:00:10.362Z,5.13
2022-11-03T09:02:57.644Z,5.07
2022-11-03T09:05:45.117Z,6.05
2022-11-03T09:11:39.453Z,5.03
2022-11-03T09:14:26.946Z,4.93
2022-11-03T09:17:14.392Z,4.80
2022-11-03T09:20:01.824Z,4.60
2022-11-03T09:22:51.659Z,3.88
2022-11-03T09:25:39.003Z,4.15
2022-11-03T09:28:26.296Z,4.45
2022-11-03T09:31:15.749Z,4.18
2022-11-03T09:34:03.330Z,4.13
2022-11-03T09:36:53.364Z,4.65
2022-11-03T09:39:48.243Z,4.72
2022-11-03T09:42:39.001Z,5.47
2022-11-03T09:45:26.507Z,5.25
2022-11-03T09:48:14.244Z,5.40
2022-11-03T09:51:02.139Z,5.63
2022-11-03T09:53:49.813Z,5.93
2022-11-03T09:56:40.351Z,6.05
2022-11-03T09:59:33.571Z,6.35
2022-11-03T10:02:24.343Z,6.53
2022-11-03T10:08:09.931Z,5.85
2022-11-03T10:11:00.466Z,5.32
2022-11-03T10:13:53.904Z,5.97
2022-11-03T10:16:42.808Z,6.05
2022-11-03T10:19:30.298Z,6.43
2022-11-03T10:22:19.940Z,7.15
2022-11-03T10:25:44.352Z,6.60
2022-11-03T10:28:31.658Z,6.28
2022-11-03T10:31:20.929Z,6.00
2022-11-03T10:34:37.629Z,6.35
2022-11-03T10:37:26.528Z,6.10
2022-11-03T10:40:47.754Z,6.60
2022-11-03T10:43:36.204Z,6.40
2022-11-03T10:46:36.961Z,6.32
2022-11-03T10:49:32.410Z,6.45
2022-11-03T10:52:25.276Z,6.85
2022-11-03T10:55:13.905Z,5.43
2022-11-03T10:58:01.216Z,5.85
2022-11-03T11:00:48.603Z,5.47
2022-11-03T11:03:42.824Z,6.50
2022-11-03T11:06:31.446Z,5.50
2022-11-03T11:09:31.411Z,5.25
2022-11-03T11:12:22.415Z,5.35
2022-11-03T11:15:35.777Z,4.70
2022-11-03T11:18:31.866Z,4.10
2022-11-03T11:21:19.345Z,5.55
2022-11-03T11:24:10.788Z,5.22
2022-11-03T11:26:59.320Z,4.47
2022-11-03T11:29:46.556Z,4.40
2022-11-03T11:32:41.618Z,4.55
2022-11-03T11:43:19.107Z,4.05
2022-11-03T11:46:50.305Z,3.33
2022-11-03T11:49:42.125Z,3.20
2022-11-03T11:52:30.221Z,3.20
2022-11-03T11:55:40.768Z,3.17
2022-11-03T11:58:33.533Z,3.03
2022-11-03T12:01:34.726Z,3.03
2022-11-03T12:04:31.692Z,2.95
2022-11-03T12:07:34.865Z,3.80
2022-11-03T12:13:44.603Z,3.70
2022-11-03T12:16:33.013Z,3.80
2022-11-03T12:19:35.340Z,3.30
2022-11-03T12:22:28.235Z,4.00
2022-11-03T12:25:37.176Z,8.50
2022-11-03T12:28:38.444Z,5.32
2022-11-03T12:31:32.980Z,3.45
2022-11-03T12:34:28.151Z,3.97
2022-11-03T12:37:16.009Z,3.35
2022-11-03T12:40:07.507Z,3.95
2022-11-03T12:42:54.614Z,4.30
2022-11-03T12:45:41.906Z,3.95
2022-11-03T12:48:29.347Z,3.60
2022-11-03T12:51:18.606Z,4.20
2022-11-03T12:54:05.745Z,3.85
2022-11-03T12:56:53.560Z,3.58
2022-11-03T12:59:46.329Z,3.88
2022-11-03T13:05:21.876Z,3.40
2022-11-03T13:08:12.558Z,3.80
2022-11-03T13:11:29.963Z,3.97
2022-11-03T13:14:17.218Z,3.75
2022-11-03T13:17:06.927Z,4.05
2022-11-03T13:19:54.908Z,3.70
2022-11-03T13:22:42.201Z,3.40
2022-11-03T13:25:29.439Z,3.95
2022-11-03T13:28:16.928Z,4.18
2022-11-03T13:31:06.290Z,4.50
2022-11-03T13:33:53.409Z,4.20
2022-11-03T13:36:40.531Z,4.32
2022-11-03T13:39:29.784Z,4.90
2022-11-03T13:42:17.099Z,4.53
2022-11-03T13:45:05.576Z,5.35
2022-11-03T13:48:29.059Z,4.43
2022-11-03T13:51:00.693Z,4.47
2022-11-03T14:00:05.727Z,3.88
2022-11-03T14:06:02.689Z,4.47
2022-11-03T14:08:49.916Z,4.80
2022-11-03T14:11:58.167Z,4.97
2022-11-03T14:14:45.369Z,4.30
2022-11-03T14:17:33.675Z,4.85
2022-11-03T14:23:18.907Z,4.03
2022-11-03T14:26:21.534Z,4.07
2022-11-03T14:29:12.189Z,4.15
2022-11-03T14:31:59.742Z,3.95
2022-11-03T14:34:47.819Z,4.50
2022-11-03T14:37:35.296Z,4.13
2022-11-03T14:40:43.115Z,4.72
2022-11-03T14:43:34.946Z,4.82
2022-11-03T14:46:24.989Z,4.70
2022-11-03T14:49:12.596Z,5.00
2022-11-03T14:52:01.829Z,6.85
2022-11-03T14:54:49.495Z,6.78
2022-11-03T14:57:36.939Z,6.75
2022-11-03T15:00:26.670Z,6.25
2022-11-03T15:03:13.907Z,6.32
2022-11-03T15:06:01.095Z,14.93
2022-11-03T15:08:53.456Z,10.90
2022-11-03T15:11:44.512Z,8.38
2022-11-03T15:14:31.898Z,6.90
2022-11-03T15:17:21.292Z,14.43
2022-11-03T15:20:09.494Z,8.82
2022-11-03T15:26:03.934Z,7.05
2022-11-03T15:28:51.092Z,8.00
2022-11-03T15:31:46.143Z,6.88
2022-11-03T15:34:34.859Z,6.70
2022-11-03T15:37:21.921Z,5.95
2022-11-03T15:40:12.569Z,5.78
2022-11-03T15:43:03.018Z,5.65
2022-11-03T15:45:50.484Z,8.68
2022-11-03T15:48:38.765Z,7.45
2022-11-03T15:51:26.308Z,7.40
2022-11-03T15:54:28.942Z,11.15
2022-11-03T15:57:16.184Z,6.13
2022-11-03T16:00:06.743Z,5.53
2022-11-03T16:03:59.445Z,5.70
2022-11-03T16:07:07.726Z,5.82
2022-11-03T16:09:54.016Z,5.20
2022-11-03T16:12:44.229Z,8.20
2022-11-03T16:15:31.437Z,8.77
2022-11-03T16:18:19.216Z,7.78
2022-11-03T16:21:06.424Z,6.32
2022-11-03T16:23:53.804Z,5.80
2022-11-03T16:26:43.386Z,5.78
2022-11-03T16:29:30.588Z,5.70
2022-11-03T16:32:17.800Z,5.80
2022-11-03T16:35:05.937Z,26.58
2022-11-03T16:38:01.028Z,20.52
2022-11-03T16:40:50.555Z,9.30
2022-11-03T16:43:37.839Z,7.53
2022-11-03T16:46:24.969Z,6.72
2022-11-03T16:49:12.357Z,7.43
2022-11-03T16:51:59.671Z,7.05
2022-11-03T16:54:49.622Z,7.40
2022-11-03T16:57:36.817Z,6.78
2022-11-03T17:00:28.230Z,9.30
2022-11-03T17:03:16.035Z,10.10
2022-11-03T17:06:03.282Z,8.65
2022-11-03T17:08:53.498Z,9.20
2022-11-03T17:11:41.442Z,7.93
2022-11-03T17:14:30.764Z,6.68
2022-11-03T17:17:18.204Z,6.75
2022-11-03T17:20:10.653Z,6.25
2022-11-03T17:22:58.102Z,5.40
2022-11-03T17:25:46.036Z,5.57
2022-11-03T17:28:33.257Z,5.40
2022-11-03T17:31:22.878Z,6.55
2022-11-03T17:34:13.347Z,6.90
2022-11-03T17:37:00.953Z,10.30
2022-11-03T17:39:48.125Z,9.93
2022-11-03T17:42:37.642Z,7.43
2022-11-03T17:45:26.811Z,9.75
2022-11-03T17:48:14.546Z,5.93
2022-11-03T17:51:05.667Z,5.97
2022-11-03T17:53:53.260Z,6.43
2022-11-03T17:56:42.911Z,7.20
2022-11-03T17:59:30.137Z,6.97
2022-11-03T18:02:30.811Z,5.75
2022-11-03T18:05:27.289Z,6.50
2022-11-03T18:08:16.435Z,7.30
2022-11-03T18:11:04.017Z,8.10
2022-11-03T18:13:51.138Z,8.52
2022-11-03T18:16:40.864Z,8.35
2022-11-03T18:19:30.701Z,8.70
2022-11-03T18:22:19.955Z,8.85
2022-11-03T18:25:14.551Z,6.80
2022-11-03T18:28:19.325Z,7.28
2022-11-03T18:31:34.063Z,7.45
2022-11-03T18:34:24.757Z,7.63
2022-11-03T18:37:12.812Z,7.07
2022-11-03T18:40:02.638Z,7.00
2022-11-03T18:42:49.839Z,6.95
2022-11-03T18:45:39.378Z,7.63
2022-11-03T18:48:27.691Z,7.05
2022-11-03T18:51:15.112Z,7.05
2022-11-03T18:54:02.444Z,7.53
2022-11-03T18:56:50.497Z,6.95
2022-11-03T18:59:43.159Z,6.70
2022-11-03T19:02:43.448Z,7.18
2022-11-03T19:05:31.127Z,7.82
2022-11-03T19:08:44.197Z,7.35
2022-11-03T19:11:31.412Z,7.95
2022-11-03T19:14:35.917Z,7.32
2022-11-03T19:17:25.630Z,7.43
2022-11-03T19:20:18.858Z,8.38
2022-11-03T19:23:10.476Z,8.32
2022-11-03T19:25:59.946Z,9.52
2022-11-03T19:28:54.388Z,10.65
2022-11-03T19:31:47.100Z,9.55
2022-11-03T19:37:25.074Z,10.25
2022-11-03T19:40:17.011Z,8.65
2022-11-03T19:43:10.441Z,8.73
2022-11-03T19:45:57.876Z,8.60
2022-11-03T19:48:45.269Z,8.50
2022-11-03T19:51:38.896Z,9.57
2022-11-03T19:54:26.317Z,9.23
2022-11-03T19:57:17.558Z,10.18
2022-11-03T20:00:17.069Z,9.43
2022-11-03T20:03:04.955Z,10.13
2022-11-03T20:05:56.653Z,9.88
2022-11-03T20:08:47.497Z,9.73
2022-11-03T20:11:35.865Z,8.57
2022-11-03T20:14:36.590Z,8.90
2022-11-03T20:17:24.719Z,9.20
2022-11-03T20:20:35.905Z,9.25
2022-11-03T20:23:31.817Z,10.57
2022-11-03T20:26:23.823Z,10.18
2022-11-03T20:29:13.577Z,10.52
2022-11-03T20:32:01.101Z,10.45
2022-11-03T20:34:51.528Z,11.65
2022-11-03T20:37:47.083Z,9.95
2022-11-03T20:40:35.209Z,11.75
2022-11-03T20:43:28.525Z,12.82
2022-11-03T20:46:18.656Z,12.68
2022-11-03T20:49:06.045Z,14.20
2022-11-03T20:51:54.454Z,12.73
2022-11-03T20:54:43.581Z,12.15
2022-11-03T20:57:30.869Z,13.38
2022-11-03T21:00:24.584Z,12.90
2022-11-03T21:06:34.487Z,14.18
2022-11-03T21:09:26.641Z,13.88
2022-11-03T21:12:16.476Z,13.77
2022-11-03T21:15:26.703Z,15.18
2022-11-03T21:18:36.409Z,15.55
2022-11-03T21:21:24.111Z,17.00
2022-11-03T21:24:14.750Z,16.90
2022-11-03T21:27:02.212Z,16.95
2022-11-03T21:29:58.942Z,18.45
2022-11-03T21:32:48.027Z,18.08
2022-11-03T21:35:35.602Z,17.38
2022-11-03T21:38:22.854Z,16.73
2022-11-03T21:41:28.363Z,15.55
2022-11-03T21:44:15.562Z,16.25
2022-11-03T21:47:02.860Z,15.85
2022-11-03T21:49:50.337Z,14.85
2022-11-03T21:52:37.642Z,15.20
2022-11-03T21:55:28.540Z,14.27
2022-11-03T21:58:18.461Z,13.02
2022-11-03T22:01:05.939Z,13.18
2022-11-03T22:03:54.932Z,13.90
2022-11-03T22:06:44.302Z,13.32
2022-11-03T22:09:37.359Z,12.18
2022-11-03T22:12:26.807Z,10.70
2022-11-03T22:15:32.707Z,12.95
2022-11-03T22:18:19.835Z,16.27
2022-11-03T22:21:27.556Z,14.27
2022-11-03T22:24:33.283Z,16.35
2022-11-03T22:27:20.471Z,14.25
2022-11-03T22:30:26.661Z,14.88
2022-11-03T22:33:13.818Z,14.85
2022-11-03T22:36:21.935Z,14.50
2022-11-03T22:39:41.500Z,13.70
2022-11-03T22:42:47.579Z,12.80
2022-11-03T22:45:54.417Z,11.25
2022-11-03T22:48:42.841Z,10.35
2022-11-03T22:51:30.362Z,11.00
2022-11-03T22:54:17.536Z,9.30
2022-11-03T22:57:04.650Z,6.95
2022-11-03T22:59:54.387Z,5.38
2022-11-03T23:02:41.615Z,3.78
2022-11-03T23:05:31.134Z,3.60
2022-11-03T23:08:18.258Z,2.90
2022-11-03T23:11:08.596Z,3.00
2022-11-03T23:14:00.171Z,2.10
2022-11-03T23:16:53.039Z,2.17
2022-11-03T23:19:58.743Z,2.38
2022-11-03T23:22:45.833Z,2.50
2022-11-03T23:25:32.870Z,2.33
2022-11-03T23:28:22.580Z,2.03
2022-11-03T23:31:10.387Z,2.55
2022-11-03T23:36:50.969Z,1.88
2022-11-03T23:39:38.177Z,1.70
2022-11-03T23:42:25.234Z,1.83
2022-11-03T23:45:30.861Z,1.60
2022-11-03T23:48:36.651Z,1.75
2022-11-03T23:51:28.383Z,1.48
2022-11-03T23:54:15.727Z,1.60
2022-11-03T23:57:41.361Z,2.00
